sensor_id;sensor_type;location;lat;lon;timestamp;pressure;altitude;pressure_sealevel;temperature;humidity
11487;BME280;10510;47.942;9.442;2022-09-09T00:00:19;94393.06;;;11.53;100.00
11487;BME280;10510;47.942;9.442;2022-09-09T00:02:22;94393.44;;;11.50;100.00
11487;BME280;10510;47.942;9.442;2022-09-09T00:04:34;94395.41;;;11.42;100.00
11487;BME280;10510;47.942;9.442;2022-09-09T00:11:13;94402.25;;;11.43;100.00
11487;BME280;10510;47.942;9.442;2022-09-09T00:13:41;94395.84;;;11.45;100.00
11487;BME280;10510;47.942;9.442;2022-09-09T00:16:09;94390.56;;;11.39;100.00
11487;BME280;10510;47.942;9.442;2022-09-09T00:18:55;94396.38;;;11.34;100.00
11487;BME280;10510;47.942;9.442;2022-09-09T00:20:52;94389.72;;;11.31;100.00
11487;BME280;10510;47.942;9.442;2022-09-09T00:23:03;94393.34;;;11.30;100.00
11487;BME280;10510;47.942;9.442;2022-09-09T00:25:28;94390.72;;;11.30;100.00
11487;BME280;10510;47.942;9.442;2022-09-09T00:27:35;94390.72;;;11.30;100.00
11487;BME280;10510;47.942;9.442;2022-09-09T00:31:41;94386.69;;;11.28;100.00
11487;BME280;10510;47.942;9.442;2022-09-09T00:33:42;94379.22;;;11.25;100.00
11487;BME280;10510;47.942;9.442;2022-09-09T00:35:51;94385.66;;;11.22;100.00
11487;BME280;10510;47.942;9.442;2022-09-09T00:37:56;94383.66;;;11.24;100.00
11487;BME280;10510;47.942;9.442;2022-09-09T00:40:00;94376.41;;;11.26;100.00
11487;BME280;10510;47.942;9.442;2022-09-09T00:46:32;94387.72;;;11.33;100.00
11487;BME280;10510;47.942;9.442;2022-09-09T00:51:26;94381.31;;;11.36;100.00
11487;BME280;10510;47.942;9.442;2022-09-09T00:58:12;94390.09;;;11.28;100.00
11487;BME280;10510;47.942;9.442;2022-09-09T01:00:16;94383.06;;;11.29;100.00
11487;BME280;10510;47.942;9.442;2022-09-09T01:02:35;94375.41;;;11.21;100.00
11487;BME280;10510;47.942;9.442;2022-09-09T01:04:39;94374.94;;;11.17;100.00
11487;BME280;10510;47.942;9.442;2022-09-09T01:06:39;94371.94;;;11.20;100.00
11487;BME280;10510;47.942;9.442;2022-09-09T01:10:59;94370.97;;;11.21;100.00
11487;BME280;10510;47.942;9.442;2022-09-09T01:13:03;94370.53;;;11.18;100.00
11487;BME280;10510;47.942;9.442;2022-09-09T01:19:23;94364.59;;;11.02;100.00
11487;BME280;10510;47.942;9.442;2022-09-09T01:21:48;94354.56;;;11.06;100.00
11487;BME280;10510;47.942;9.442;2022-09-09T01:24:15;94352.00;;;11.12;100.00
11487;BME280;10510;47.942;9.442;2022-09-09T01:26:30;94362.47;;;11.12;100.00
11487;BME280;10510;47.942;9.442;2022-09-09T01:28:34;94364.47;;;11.10;100.00
11487;BME280;10510;47.942;9.442;2022-09-09T01:30:39;94364.84;;;11.07;100.00
11487;BME280;10510;47.942;9.442;2022-09-09T01:32:41;94367.63;;;11.06;100.00
11487;BME280;10510;47.942;9.442;2022-09-09T01:34:42;94363.41;;;11.05;100.00
11487;BME280;10510;47.942;9.442;2022-09-09T01:38:48;94366.06;;;11.11;100.00
11487;BME280;10510;47.942;9.442;2022-09-09T01:40:49;94360.66;;;11.13;100.00
11487;BME280;10510;47.942;9.442;2022-09-09T01:42:52;94356.03;;;11.15;100.00
11487;BME280;10510;47.942;9.442;2022-09-09T01:44:53;94352.19;;;11.11;100.00
11487;BME280;10510;47.942;9.442;2022-09-09T01:46:54;94354.16;;;11.02;100.00
11487;BME280;10510;47.942;9.442;2022-09-09T01:48:55;94345.50;;;11.02;100.00
11487;BME280;10510;47.942;9.442;2022-09-09T01:50:56;94338.47;;;11.02;100.00
11487;BME280;10510;47.942;9.442;2022-09-09T01:52:58;94346.31;;;11.02;100.00
11487;BME280;10510;47.942;9.442;2022-09-09T01:54:59;94349.31;;;10.99;100.00
11487;BME280;10510;47.942;9.442;2022-09-09T01:57:15;94347.50;;;11.00;100.00
11487;BME280;10510;47.942;9.442;2022-09-09T02:03:57;94343.66;;;10.96;100.00
11487;BME280;10510;47.942;9.442;2022-09-09T02:08:14;94346.09;;;10.97;100.00
11487;BME280;10510;47.942;9.442;2022-09-09T02:10:20;94343.03;;;10.94;100.00
11487;BME280;10510;47.942;9.442;2022-09-09T02:12:23;94340.25;;;10.95;100.00
11487;BME280;10510;47.942;9.442;2022-09-09T02:14:30;94343.28;;;10.99;100.00
11487;BME280;10510;47.942;9.442;2022-09-09T02:16:41;94348.75;;;11.04;100.00
11487;BME280;10510;47.942;9.442;2022-09-09T02:18:52;94342.13;;;11.08;100.00
11487;BME280;10510;47.942;9.442;2022-09-09T02:20:56;94345.34;;;11.10;100.00
11487;BME280;10510;47.942;9.442;2022-09-09T02:22:58;94341.72;;;11.11;100.00
11487;BME280;10510;47.942;9.442;2022-09-09T02:24:59;94342.34;;;11.13;100.00
11487;BME280;10510;47.942;9.442;2022-09-09T02:27:03;94337.75;;;11.15;100.00
11487;BME280;10510;47.942;9.442;2022-09-09T02:29:08;94338.34;;;11.17;100.00
11487;BME280;10510;47.942;9.442;2022-09-09T02:31:09;94339.19;;;11.24;100.00
11487;BME280;10510;47.942;9.442;2022-09-09T02:33:10;94344.25;;;11.32;100.00
11487;BME280;10510;47.942;9.442;2022-09-09T02:35:16;94348.50;;;11.40;100.00
11487;BME280;10510;47.942;9.442;2022-09-09T02:37:20;94340.66;;;11.47;100.00
11487;BME280;10510;47.942;9.442;2022-09-09T02:39:22;94344.13;;;11.54;100.00
11487;BME280;10510;47.942;9.442;2022-09-09T02:41:33;94342.72;;;11.58;100.00
11487;BME280;10510;47.942;9.442;2022-09-09T02:43:34;94354.44;;;11.62;100.00
11487;BME280;10510;47.942;9.442;2022-09-09T02:45:41;94356.84;;;11.70;100.00
11487;BME280;10510;47.942;9.442;2022-09-09T02:50:19;94362.31;;;11.69;100.00
11487;BME280;10510;47.942;9.442;2022-09-09T02:54:44;94380.25;;;11.72;100.00
11487;BME280;10510;47.942;9.442;2022-09-09T02:56:53;94379.47;;;11.85;100.00
11487;BME280;10510;47.942;9.442;2022-09-09T02:58:56;94376.31;;;12.02;100.00
11487;BME280;10510;47.942;9.442;2022-09-09T03:00:57;94380.78;;;12.15;100.00
11487;BME280;10510;47.942;9.442;2022-09-09T03:02:57;94376.75;;;12.26;100.00
11487;BME280;10510;47.942;9.442;2022-09-09T03:04:58;94382.84;;;12.33;100.00
11487;BME280;10510;47.942;9.442;2022-09-09T03:06:59;94387.47;;;12.38;100.00
11487;BME280;10510;47.942;9.442;2022-09-09T03:08:59;94387.66;;;12.43;100.00
11487;BME280;10510;47.942;9.442;2022-09-09T03:11:01;94393.75;;;12.50;100.00
11487;BME280;10510;47.942;9.442;2022-09-09T03:13:02;94388.91;;;12.54;100.00
11487;BME280;10510;47.942;9.442;2022-09-09T03:15:02;94382.06;;;12.59;100.00
11487;BME280;10510;47.942;9.442;2022-09-09T03:17:03;94383.47;;;12.62;100.00
11487;BME280;10510;47.942;9.442;2022-09-09T03:19:03;94379.19;;;12.67;100.00
11487;BME280;10510;47.942;9.442;2022-09-09T03:21:04;94382.25;;;12.71;100.00
11487;BME280;10510;47.942;9.442;2022-09-09T03:23:04;94381.03;;;12.73;100.00
11487;BME280;10510;47.942;9.442;2022-09-09T03:25:05;94378.00;;;12.77;100.00
11487;BME280;10510;47.942;9.442;2022-09-09T03:27:05;94379.22;;;12.81;100.00
11487;BME280;10510;47.942;9.442;2022-09-09T03:29:07;94377.59;;;12.86;100.00
11487;BME280;10510;47.942;9.442;2022-09-09T03:31:07;94384.25;;;12.89;100.00
11487;BME280;10510;47.942;9.442;2022-09-09T03:33:10;94384.84;;;12.91;100.00
11487;BME280;10510;47.942;9.442;2022-09-09T03:35:10;94381.22;;;12.92;100.00
11487;BME280;10510;47.942;9.442;2022-09-09T03:37:10;94387.47;;;12.91;100.00
11487;BME280;10510;47.942;9.442;2022-09-09T03:39:11;94386.88;;;12.89;100.00
11487;BME280;10510;47.942;9.442;2022-09-09T03:41:11;94393.72;;;12.90;100.00
11487;BME280;10510;47.942;9.442;2022-09-09T03:43:12;94402.41;;;12.90;100.00
11487;BME280;10510;47.942;9.442;2022-09-09T03:45:13;94396.97;;;12.92;100.00
11487;BME280;10510;47.942;9.442;2022-09-09T03:47:13;94397.53;;;12.94;100.00
11487;BME280;10510;47.942;9.442;2022-09-09T03:49:13;94401.00;;;12.94;100.00
11487;BME280;10510;47.942;9.442;2022-09-09T03:51:14;94402.41;;;12.97;100.00
11487;BME280;10510;47.942;9.442;2022-09-09T03:53:17;94397.75;;;12.99;100.00
11487;BME280;10510;47.942;9.442;2022-09-09T03:55:17;94398.97;;;13.03;100.00
11487;BME280;10510;47.942;9.442;2022-09-09T03:57:19;94402.19;;;13.05;100.00
11487;BME280;10510;47.942;9.442;2022-09-09T03:59:19;94402.78;;;13.07;100.00
11487;BME280;10510;47.942;9.442;2022-09-09T04:01:21;94394.31;;;13.12;100.00
11487;BME280;10510;47.942;9.442;2022-09-09T04:03:21;94395.69;;;13.14;100.00
11487;BME280;10510;47.942;9.442;2022-09-09T04:05:22;94396.69;;;13.20;100.00
11487;BME280;10510;47.942;9.442;2022-09-09T04:07:22;94397.72;;;13.26;100.00
11487;BME280;10510;47.942;9.442;2022-09-09T04:09:22;94392.06;;;13.29;100.00
11487;BME280;10510;47.942;9.442;2022-09-09T04:11:23;94394.28;;;13.32;100.00
11487;BME280;10510;47.942;9.442;2022-09-09T04:13:24;94395.69;;;13.34;100.00
11487;BME280;10510;47.942;9.442;2022-09-09T04:15:25;94390.84;;;13.38;100.00
11487;BME280;10510;47.942;9.442;2022-09-09T04:17:25;94391.25;;;13.42;100.00
11487;BME280;10510;47.942;9.442;2022-09-09T04:19:25;94386.38;;;13.45;100.00
11487;BME280;10510;47.942;9.442;2022-09-09T04:21:26;94393.06;;;13.48;100.00
11487;BME280;10510;47.942;9.442;2022-09-09T04:23:27;94384.75;;;13.51;100.00
11487;BME280;10510;47.942;9.442;2022-09-09T04:25:31;94391.59;;;13.52;100.00
11487;BME280;10510;47.942;9.442;2022-09-09T04:27:31;94382.13;;;13.51;100.00
11487;BME280;10510;47.942;9.442;2022-09-09T04:29:32;94395.25;;;13.51;100.00
11487;BME280;10510;47.942;9.442;2022-09-09T04:31:33;94402.13;;;13.52;100.00
11487;BME280;10510;47.942;9.442;2022-09-09T04:33:33;94401.09;;;13.53;100.00
11487;BME280;10510;47.942;9.442;2022-09-09T04:35:34;94393.03;;;13.54;100.00
11487;BME280;10510;47.942;9.442;2022-09-09T04:37:35;94394.63;;;13.55;100.00
11487;BME280;10510;47.942;9.442;2022-09-09T04:39:35;94398.03;;;13.56;100.00
11487;BME280;10510;47.942;9.442;2022-09-09T04:41:35;94399.69;;;13.57;100.00
11487;BME280;10510;47.942;9.442;2022-09-09T04:43:35;94400.47;;;13.57;100.00
11487;BME280;10510;47.942;9.442;2022-09-09T04:45:37;94389.78;;;13.59;100.00
11487;BME280;10510;47.942;9.442;2022-09-09T04:47:37;94394.22;;;13.58;100.00
11487;BME280;10510;47.942;9.442;2022-09-09T04:49:38;94388.97;;;13.58;100.00
11487;BME280;10510;47.942;9.442;2022-09-09T04:51:38;94397.66;;;13.59;100.00
11487;BME280;10510;47.942;9.442;2022-09-09T04:53:39;94397.66;;;13.59;100.00
11487;BME280;10510;47.942;9.442;2022-09-09T04:55:40;94395.22;;;13.57;100.00
11487;BME280;10510;47.942;9.442;2022-09-09T04:57:40;94397.25;;;13.55;100.00
11487;BME280;10510;47.942;9.442;2022-09-09T04:59:41;94394.22;;;13.52;100.00
11487;BME280;10510;47.942;9.442;2022-09-09T05:01:41;94397.09;;;13.50;100.00
11487;BME280;10510;47.942;9.442;2022-09-09T05:03:42;94389.63;;;13.47;100.00
11487;BME280;10510;47.942;9.442;2022-09-09T05:05:42;94389.00;;;13.45;100.00
11487;BME280;10510;47.942;9.442;2022-09-09T05:07:43;94393.47;;;13.45;100.00
11487;BME280;10510;47.942;9.442;2022-09-09T05:09:43;94387.59;;;13.43;100.00
11487;BME280;10510;47.942;9.442;2022-09-09T05:11:44;94384.38;;;13.40;100.00
11487;BME280;10510;47.942;9.442;2022-09-09T05:13:45;94394.47;;;13.37;100.00
11487;BME280;10510;47.942;9.442;2022-09-09T05:15:52;94390.66;;;13.33;100.00
11487;BME280;10510;47.942;9.442;2022-09-09T05:17:59;94395.31;;;13.31;100.00
11487;BME280;10510;47.942;9.442;2022-09-09T05:20:00;94399.53;;;13.32;100.00
11487;BME280;10510;47.942;9.442;2022-09-09T05:22:03;94397.72;;;13.32;100.00
11487;BME280;10510;47.942;9.442;2022-09-09T05:24:04;94398.53;;;13.33;100.00
11487;BME280;10510;47.942;9.442;2022-09-09T05:26:05;94402.78;;;13.34;100.00
11487;BME280;10510;47.942;9.442;2022-09-09T05:28:07;94406.41;;;13.33;100.00
11487;BME280;10510;47.942;9.442;2022-09-09T05:30:08;94411.66;;;13.33;100.00
11487;BME280;10510;47.942;9.442;2022-09-09T05:32:08;94417.09;;;13.31;100.00
11487;BME280;10510;47.942;9.442;2022-09-09T05:34:10;94417.91;;;13.32;100.00
11487;BME280;10510;47.942;9.442;2022-09-09T05:36:12;94418.31;;;13.29;100.00
11487;BME280;10510;47.942;9.442;2022-09-09T05:38:16;94424.38;;;13.29;100.00
11487;BME280;10510;47.942;9.442;2022-09-09T05:40:18;94415.91;;;13.27;100.00
11487;BME280;10510;47.942;9.442;2022-09-09T05:42:18;94411.66;;;13.26;100.00
11487;BME280;10510;47.942;9.442;2022-09-09T05:44:19;94412.47;;;13.27;100.00
11487;BME280;10510;47.942;9.442;2022-09-09T05:46:21;94408.84;;;13.28;100.00
11487;BME280;10510;47.942;9.442;2022-09-09T05:48:22;94414.69;;;13.30;100.00
11487;BME280;10510;47.942;9.442;2022-09-09T05:50:22;94410.03;;;13.32;100.00
11487;BME280;10510;47.942;9.442;2022-09-09T05:52:22;94402.16;;;13.32;100.00
11487;BME280;10510;47.942;9.442;2022-09-09T05:54:23;94400.34;;;13.32;100.00
11487;BME280;10510;47.942;9.442;2022-09-09T05:56:26;94404.19;;;13.36;100.00
11487;BME280;10510;47.942;9.442;2022-09-09T05:58:27;94406.38;;;13.39;100.00
11487;BME280;10510;47.942;9.442;2022-09-09T06:00:27;94418.31;;;13.42;100.00
11487;BME280;10510;47.942;9.442;2022-09-09T06:02:27;94415.44;;;13.44;100.00
11487;BME280;10510;47.942;9.442;2022-09-09T06:04:28;94418.69;;;13.46;100.00
11487;BME280;10510;47.942;9.442;2022-09-09T06:06:33;94415.03;;;13.47;100.00
11487;BME280;10510;47.942;9.442;2022-09-09T06:08:38;94423.53;;;13.49;100.00
11487;BME280;10510;47.942;9.442;2022-09-09T06:10:39;94423.13;;;13.52;100.00
11487;BME280;10510;47.942;9.442;2022-09-09T06:12:39;94412.00;;;13.56;100.00
11487;BME280;10510;47.942;9.442;2022-09-09T06:14:40;94418.44;;;13.60;100.00
11487;BME280;10510;47.942;9.442;2022-09-09T06:16:40;94421.69;;;13.62;100.00
11487;BME280;10510;47.942;9.442;2022-09-09T06:18:43;94418.63;;;13.66;100.00
11487;BME280;10510;47.942;9.442;2022-09-09T06:20:57;94428.72;;;13.69;100.00
11487;BME280;10510;47.942;9.442;2022-09-09T06:22:58;94424.66;;;13.73;100.00
11487;BME280;10510;47.942;9.442;2022-09-09T06:24:58;94427.47;;;13.78;100.00
11487;BME280;10510;47.942;9.442;2022-09-09T06:27:00;94429.88;;;13.86;100.00
11487;BME280;10510;47.942;9.442;2022-09-09T06:29:01;94427.41;;;13.91;100.00
11487;BME280;10510;47.942;9.442;2022-09-09T06:31:08;94426.78;;;13.96;100.00
11487;BME280;10510;47.942;9.442;2022-09-09T06:33:09;94430.59;;;14.00;100.00
11487;BME280;10510;47.942;9.442;2022-09-09T06:35:09;94427.56;;;14.03;100.00
11487;BME280;10510;47.942;9.442;2022-09-09T06:37:10;94430.00;;;14.04;100.00
11487;BME280;10510;47.942;9.442;2022-09-09T06:39:11;94432.44;;;14.06;100.00
11487;BME280;10510;47.942;9.442;2022-09-09T06:41:13;94426.16;;;14.07;100.00
11487;BME280;10510;47.942;9.442;2022-09-09T06:43:13;94432.44;;;14.06;100.00
11487;BME280;10510;47.942;9.442;2022-09-09T06:45:14;94432.63;;;14.04;100.00
11487;BME280;10510;47.942;9.442;2022-09-09T06:47:14;94444.56;;;14.00;100.00
11487;BME280;10510;47.942;9.442;2022-09-09T06:49:14;94438.50;;;14.00;100.00
11487;BME280;10510;47.942;9.442;2022-09-09T06:51:17;94438.69;;;14.05;100.00
11487;BME280;10510;47.942;9.442;2022-09-09T06:53:18;94436.03;;;14.05;100.00
11487;BME280;10510;47.942;9.442;2022-09-09T06:55:21;94439.69;;;14.04;100.00
11487;BME280;10510;47.942;9.442;2022-09-09T06:57:21;94443.13;;;14.04;100.00
11487;BME280;10510;47.942;9.442;2022-09-09T06:59:22;94438.69;;;14.05;100.00
11487;BME280;10510;47.942;9.442;2022-09-09T07:01:24;94438.25;;;14.08;100.00
11487;BME280;10510;47.942;9.442;2022-09-09T07:03:25;94443.09;;;14.11;100.00
11487;BME280;10510;47.942;9.442;2022-09-09T07:05:25;94445.91;;;14.16;100.00
11487;BME280;10510;47.942;9.442;2022-09-09T07:07:26;94446.50;;;14.18;100.00
11487;BME280;10510;47.942;9.442;2022-09-09T07:09:27;94447.91;;;14.21;100.00
11487;BME280;10510;47.942;9.442;2022-09-09T07:11:29;94450.53;;;14.21;100.00
11487;BME280;10510;47.942;9.442;2022-09-09T07:13:30;94448.06;;;14.26;100.00
11487;BME280;10510;47.942;9.442;2022-09-09T07:15:30;94456.75;;;14.33;100.00
11487;BME280;10510;47.942;9.442;2022-09-09T07:17:30;94449.63;;;14.40;100.00
11487;BME280;10510;47.942;9.442;2022-09-09T07:19:31;94448.97;;;14.51;100.00
11487;BME280;10510;47.942;9.442;2022-09-09T07:21:32;94453.19;;;14.59;100.00
11487;BME280;10510;47.942;9.442;2022-09-09T07:23:33;94449.09;;;14.63;100.00
11487;BME280;10510;47.942;9.442;2022-09-09T07:25:35;94436.75;;;14.64;100.00
11487;BME280;10510;47.942;9.442;2022-09-09T07:27:35;94441.03;;;14.65;100.00
11487;BME280;10510;47.942;9.442;2022-09-09T07:29:36;94438.16;;;14.66;100.00
11487;BME280;10510;47.942;9.442;2022-09-09T07:31:38;94443.78;;;14.70;100.00
11487;BME280;10510;47.942;9.442;2022-09-09T07:33:39;94437.09;;;14.74;100.00
11487;BME280;10510;47.942;9.442;2022-09-09T07:35:40;94441.50;;;14.80;100.00
11487;BME280;10510;47.942;9.442;2022-09-09T07:37:43;94441.66;;;14.85;100.00
11487;BME280;10510;47.942;9.442;2022-09-09T07:39:44;94440.81;;;14.91;100.00
11487;BME280;10510;47.942;9.442;2022-09-09T07:41:46;94443.81;;;14.95;100.00
11487;BME280;10510;47.942;9.442;2022-09-09T07:43:48;94445.59;;;15.01;100.00
11487;BME280;10510;47.942;9.442;2022-09-09T07:45:57;94451.59;;;15.08;100.00
11487;BME280;10510;47.942;9.442;2022-09-09T07:47:58;94464.28;;;15.18;100.00
11487;BME280;10510;47.942;9.442;2022-09-09T07:49:58;94462.63;;;15.24;100.00
11487;BME280;10510;47.942;9.442;2022-09-09T07:51:58;94467.22;;;15.28;100.00
11487;BME280;10510;47.942;9.442;2022-09-09T07:54:02;94462.56;;;15.30;100.00
11487;BME280;10510;47.942;9.442;2022-09-09T07:56:04;94465.75;;;15.32;100.00
11487;BME280;10510;47.942;9.442;2022-09-09T07:58:05;94468.56;;;15.37;100.00
11487;BME280;10510;47.942;9.442;2022-09-09T08:00:05;94461.25;;;15.39;100.00
11487;BME280;10510;47.942;9.442;2022-09-09T08:02:06;94457.16;;;15.43;100.00
11487;BME280;10510;47.942;9.442;2022-09-09T08:04:12;94472.91;;;15.50;100.00
11487;BME280;10510;47.942;9.442;2022-09-09T08:06:16;94464.34;;;15.55;100.00
11487;BME280;10510;47.942;9.442;2022-09-09T08:08:16;94469.78;;;15.60;100.00
11487;BME280;10510;47.942;9.442;2022-09-09T08:10:17;94458.09;;;15.74;100.00
11487;BME280;10510;47.942;9.442;2022-09-09T08:12:18;94466.09;;;15.86;100.00
11487;BME280;10510;47.942;9.442;2022-09-09T08:14:18;94467.59;;;15.94;100.00
11487;BME280;10510;47.942;9.442;2022-09-09T08:16:24;94468.72;;;16.04;100.00
11487;BME280;10510;47.942;9.442;2022-09-09T08:18:26;94475.13;;;16.08;100.00
11487;BME280;10510;47.942;9.442;2022-09-09T08:20:26;94475.53;;;16.12;100.00
11487;BME280;10510;47.942;9.442;2022-09-09T08:22:27;94479.53;;;16.15;100.00
11487;BME280;10510;47.942;9.442;2022-09-09T08:24:28;94477.91;;;16.13;100.00
11487;BME280;10510;47.942;9.442;2022-09-09T08:26:31;94478.38;;;16.10;100.00
11487;BME280;10510;47.942;9.442;2022-09-09T08:28:31;94485.63;;;16.15;100.00
11487;BME280;10510;47.942;9.442;2022-09-09T08:30:32;94476.69;;;16.16;100.00
11487;BME280;10510;47.942;9.442;2022-09-09T08:32:32;94477.84;;;16.20;100.00
11487;BME280;10510;47.942;9.442;2022-09-09T08:34:33;94473.66;;;16.31;100.00
11487;BME280;10510;47.942;9.442;2022-09-09T08:36:35;94481.63;;;16.43;100.00
11487;BME280;10510;47.942;9.442;2022-09-09T08:38:37;94484.44;;;16.60;100.00
11487;BME280;10510;47.942;9.442;2022-09-09T08:40:43;94485.22;;;16.78;100.00
11487;BME280;10510;47.942;9.442;2022-09-09T08:42:49;94486.63;;;16.93;100.00
11487;BME280;10510;47.942;9.442;2022-09-09T08:49:19;94481.75;;;17.32;100.00
11487;BME280;10510;47.942;9.442;2022-09-09T08:51:27;94487.38;;;17.35;100.00
11487;BME280;10510;47.942;9.442;2022-09-09T08:53:43;94477.41;;;17.37;100.00
11487;BME280;10510;47.942;9.442;2022-09-09T08:57:53;94490.59;;;17.49;100.00
11487;BME280;10510;47.942;9.442;2022-09-09T08:59:54;94490.25;;;17.34;100.00
11487;BME280;10510;47.942;9.442;2022-09-09T09:02:20;94489.47;;;17.33;100.00
11487;BME280;10510;47.942;9.442;2022-09-09T09:04:41;94491.41;;;17.49;100.00
11487;BME280;10510;47.942;9.442;2022-09-09T09:12:12;94488.53;;;18.50;100.00
11487;BME280;10510;47.942;9.442;2022-09-09T09:14:21;94482.28;;;18.28;100.00
11487;BME280;10510;47.942;9.442;2022-09-09T09:16:27;94485.97;;;18.27;100.00
11487;BME280;10510;47.942;9.442;2022-09-09T09:18:32;94484.84;;;18.11;100.00
11487;BME280;10510;47.942;9.442;2022-09-09T09:20:50;94477.66;;;17.95;100.00
11487;BME280;10510;47.942;9.442;2022-09-09T09:23:02;94486.06;;;17.80;100.00
11487;BME280;10510;47.942;9.442;2022-09-09T09:25:14;94480.84;;;17.61;100.00
11487;BME280;10510;47.942;9.442;2022-09-09T09:29:53;94490.28;;;17.45;100.00
11487;BME280;10510;47.942;9.442;2022-09-09T09:32:01;94485.78;;;17.69;100.00
11487;BME280;10510;47.942;9.442;2022-09-09T09:34:02;94485.09;;;17.51;100.00
11487;BME280;10510;47.942;9.442;2022-09-09T09:36:03;94478.09;;;17.44;100.00
11487;BME280;10510;47.942;9.442;2022-09-09T09:38:16;94481.19;;;18.00;100.00
11487;BME280;10510;47.942;9.442;2022-09-09T09:40:19;94474.28;;;18.97;100.00
11487;BME280;10510;47.942;9.442;2022-09-09T09:42:20;94473.34;;;19.70;100.00
11487;BME280;10510;47.942;9.442;2022-09-09T09:46:28;94466.69;;;20.78;100.00
11487;BME280;10510;47.942;9.442;2022-09-09T09:48:29;94466.47;;;21.12;100.00
11487;BME280;10510;47.942;9.442;2022-09-09T09:50:30;94460.25;;;21.28;100.00
11487;BME280;10510;47.942;9.442;2022-09-09T09:52:32;94469.47;;;21.52;100.00
11487;BME280;10510;47.942;9.442;2022-09-09T09:54:39;94458.72;;;21.74;100.00
11487;BME280;10510;47.942;9.442;2022-09-09T09:56:42;94460.69;;;21.89;100.00
11487;BME280;10510;47.942;9.442;2022-09-09T10:00:51;94465.75;;;21.48;100.00
11487;BME280;10510;47.942;9.442;2022-09-09T10:02:52;94462.28;;;21.53;100.00
11487;BME280;10510;47.942;9.442;2022-09-09T10:05:19;94458.44;;;21.71;100.00
11487;BME280;10510;47.942;9.442;2022-09-09T10:07:20;94462.25;;;21.90;100.00
11487;BME280;10510;47.942;9.442;2022-09-09T10:09:30;94457.31;;;21.62;100.00
11487;BME280;10510;47.942;9.442;2022-09-09T10:11:43;94456.69;;;21.49;100.00
11487;BME280;10510;47.942;9.442;2022-09-09T10:14:07;94458.84;;;21.20;100.00
11487;BME280;10510;47.942;9.442;2022-09-09T10:24:16;94444.75;;;22.62;100.00
11487;BME280;10510;47.942;9.442;2022-09-09T10:29:37;94432.78;;;22.02;100.00
11487;BME280;10510;47.942;9.442;2022-09-09T10:32:05;94431.91;;;21.81;100.00
11487;BME280;10510;47.942;9.442;2022-09-09T10:36:26;94425.31;;;22.57;100.00
11487;BME280;10510;47.942;9.442;2022-09-09T10:38:40;94421.88;;;22.87;100.00
11487;BME280;10510;47.942;9.442;2022-09-09T10:42:54;94418.06;;;22.47;100.00
11487;BME280;10510;47.942;9.442;2022-09-09T10:47:37;94432.81;;;22.80;100.00
11487;BME280;10510;47.942;9.442;2022-09-09T10:56:21;94416.31;;;23.40;100.00
11487;BME280;10510;47.942;9.442;2022-09-09T10:58:30;94422.16;;;23.47;100.00
11487;BME280;10510;47.942;9.442;2022-09-09T11:00:46;94423.25;;;23.71;100.00
11487;BME280;10510;47.942;9.442;2022-09-09T11:02:58;94421.94;;;23.12;100.00
11487;BME280;10510;47.942;9.442;2022-09-09T11:05:23;94429.28;;;22.49;100.00
11487;BME280;10510;47.942;9.442;2022-09-09T11:07:38;94431.59;;;21.72;100.00
11487;BME280;10510;47.942;9.442;2022-09-09T11:09:44;94428.56;;;21.21;100.00
11487;BME280;10510;47.942;9.442;2022-09-09T11:11:56;94440.66;;;20.75;100.00
11487;BME280;10510;47.942;9.442;2022-09-09T11:14:13;94433.41;;;20.43;100.00
11487;BME280;10510;47.942;9.442;2022-09-09T11:16:23;94428.28;;;20.36;100.00
11487;BME280;10510;47.942;9.442;2022-09-09T11:18:28;94432.66;;;20.26;100.00
11487;BME280;10510;47.942;9.442;2022-09-09T11:20:29;94433.94;;;20.18;100.00
11487;BME280;10510;47.942;9.442;2022-09-09T11:22:33;94429.41;;;19.96;100.00
11487;BME280;10510;47.942;9.442;2022-09-09T11:24:41;94430.91;;;19.70;100.00
11487;BME280;10510;47.942;9.442;2022-09-09T11:26:49;94432.16;;;19.46;100.00
11487;BME280;10510;47.942;9.442;2022-09-09T11:33:31;94430.72;;;18.88;100.00
11487;BME280;10510;47.942;9.442;2022-09-09T11:42:23;94427.53;;;19.19;100.00
11487;BME280;10510;47.942;9.442;2022-09-09T11:44:29;94430.56;;;19.11;100.00
11487;BME280;10510;47.942;9.442;2022-09-09T11:46:36;94434.97;;;19.05;100.00
11487;BME280;10510;47.942;9.442;2022-09-09T11:48:40;94440.13;;;18.95;100.00
11487;BME280;10510;47.942;9.442;2022-09-09T11:50:45;94438.66;;;18.88;100.00
11487;BME280;10510;47.942;9.442;2022-09-09T11:52:47;94439.16;;;18.73;100.00
11487;BME280;10510;47.942;9.442;2022-09-09T11:54:49;94421.84;;;18.65;100.00
11487;BME280;10510;47.942;9.442;2022-09-09T11:56:50;94433.84;;;18.56;100.00
11487;BME280;10510;47.942;9.442;2022-09-09T11:59:01;94426.78;;;18.61;100.00
11487;BME280;10510;47.942;9.442;2022-09-09T12:01:14;94427.75;;;18.84;100.00
11487;BME280;10510;47.942;9.442;2022-09-09T12:03:46;94429.50;;;19.29;100.00
11487;BME280;10510;47.942;9.442;2022-09-09T12:05:49;94433.28;;;19.67;100.00
11487;BME280;10510;47.942;9.442;2022-09-09T12:07:55;94417.97;;;20.40;100.00
11487;BME280;10510;47.942;9.442;2022-09-09T12:12:21;94426.63;;;21.12;100.00
11487;BME280;10510;47.942;9.442;2022-09-09T12:16:36;94422.66;;;21.14;100.00
11487;BME280;10510;47.942;9.442;2022-09-09T12:18:39;94417.56;;;21.40;100.00
11487;BME280;10510;47.942;9.442;2022-09-09T12:20:57;94427.38;;;21.82;100.00
11487;BME280;10510;47.942;9.442;2022-09-09T12:25:21;94425.38;;;22.04;100.00
11487;BME280;10510;47.942;9.442;2022-09-09T12:27:27;94426.19;;;22.10;100.00
11487;BME280;10510;47.942;9.442;2022-09-09T12:29:44;94416.38;;;22.15;100.00